sensor_id;sensor_type;location;lat;lon;timestamp;temperature;humidity
68257;DHT22;55069;51.568;4.656;2023-11-22T00:00:02;4.62;97.44
68257;DHT22;55069;51.568;4.656;2023-11-22T00:02:34;4.62;97.53
68257;DHT22;55069;51.568;4.656;2023-11-22T00:04:59;4.58;97.45
68257;DHT22;55069;51.568;4.656;2023-11-22T00:07:25;4.54;97.46
68257;DHT22;55069;51.568;4.656;2023-11-22T00:09:54;4.48;97.40
68257;DHT22;55069;51.568;4.656;2023-11-22T00:12:20;4.36;97.39
68257;DHT22;55069;51.568;4.656;2023-11-22T00:14:45;4.38;97.49
68257;DHT22;55069;51.568;4.656;2023-11-22T00:17:12;4.37;97.72
68257;DHT22;55069;51.568;4.656;2023-11-22T00:19:38;4.40;97.66
68257;DHT22;55069;51.568;4.656;2023-11-22T00:22:04;4.40;97.52
68257;DHT22;55069;51.568;4.656;2023-11-22T00:24:37;4.34;97.56
68257;DHT22;55069;51.568;4.656;2023-11-22T00:27:02;4.30;97.52
68257;DHT22;55069;51.568;4.656;2023-11-22T00:29:28;4.30;97.63
68257;DHT22;55069;51.568;4.656;2023-11-22T00:31:53;4.27;97.72
68257;DHT22;55069;51.568;4.656;2023-11-22T00:34:19;4.21;97.57
68257;DHT22;55069;51.568;4.656;2023-11-22T00:36:44;4.20;97.56
68257;DHT22;55069;51.568;4.656;2023-11-22T00:39:10;4.17;97.58
68257;DHT22;55069;51.568;4.656;2023-11-22T00:41:39;4.07;97.55
68257;DHT22;55069;51.568;4.656;2023-11-22T00:44:05;4.11;97.56
68257;DHT22;55069;51.568;4.656;2023-11-22T00:46:34;4.11;97.36
68257;DHT22;55069;51.568;4.656;2023-11-22T00:48:59;4.03;97.46
68257;DHT22;55069;51.568;4.656;2023-11-22T00:51:25;3.99;97.40
68257;DHT22;55069;51.568;4.656;2023-11-22T00:53:50;3.93;97.59
68257;DHT22;55069;51.568;4.656;2023-11-22T00:56:16;3.96;97.66
68257;DHT22;55069;51.568;4.656;2023-11-22T00:58:42;4.00;97.76
68257;DHT22;55069;51.568;4.656;2023-11-22T01:01:08;3.95;97.80
68257;DHT22;55069;51.568;4.656;2023-11-22T01:03:33;3.96;97.78
68257;DHT22;55069;51.568;4.656;2023-11-22T01:06:00;3.91;97.65
68257;DHT22;55069;51.568;4.656;2023-11-22T01:08:26;3.89;97.64
68257;DHT22;55069;51.568;4.656;2023-11-22T01:10:51;3.88;97.53
68257;DHT22;55069;51.568;4.656;2023-11-22T01:13:17;3.83;97.32
68257;DHT22;55069;51.568;4.656;2023-11-22T01:15:43;3.78;97.33
68257;DHT22;55069;51.568;4.656;2023-11-22T01:18:10;3.75;97.36
68257;DHT22;55069;51.568;4.656;2023-11-22T01:20:36;3.71;97.75
68257;DHT22;55069;51.568;4.656;2023-11-22T01:23:02;3.71;97.72
68257;DHT22;55069;51.568;4.656;2023-11-22T01:25:27;3.71;97.92
68257;DHT22;55069;51.568;4.656;2023-11-22T01:27:53;3.78;97.99
68257;DHT22;55069;51.568;4.656;2023-11-22T01:30:20;3.78;98.01
68257;DHT22;55069;51.568;4.656;2023-11-22T01:32:45;3.77;98.05
68257;DHT22;55069;51.568;4.656;2023-11-22T01:35:11;3.77;97.99
68257;DHT22;55069;51.568;4.656;2023-11-22T01:37:36;3.77;98.13
68257;DHT22;55069;51.568;4.656;2023-11-22T01:40:03;3.75;98.16
68257;DHT22;55069;51.568;4.656;2023-11-22T01:42:29;3.70;98.17
68257;DHT22;55069;51.568;4.656;2023-11-22T01:44:55;3.78;98.12
68257;DHT22;55069;51.568;4.656;2023-11-22T01:47:21;3.75;98.07
68257;DHT22;55069;51.568;4.656;2023-11-22T01:49:47;3.75;98.14
68257;DHT22;55069;51.568;4.656;2023-11-22T01:52:14;3.70;98.04
68257;DHT22;55069;51.568;4.656;2023-11-22T01:54:40;3.67;98.01
68257;DHT22;55069;51.568;4.656;2023-11-22T01:57:06;3.65;97.71
68257;DHT22;55069;51.568;4.656;2023-11-22T01:59:34;3.54;97.62
68257;DHT22;55069;51.568;4.656;2023-11-22T02:02:00;3.54;97.61
68257;DHT22;55069;51.568;4.656;2023-11-22T02:04:25;3.50;97.77
68257;DHT22;55069;51.568;4.656;2023-11-22T02:06:51;3.50;97.85
68257;DHT22;55069;51.568;4.656;2023-11-22T02:09:17;3.52;97.90
68257;DHT22;55069;51.568;4.656;2023-11-22T02:11:44;3.54;97.74
68257;DHT22;55069;51.568;4.656;2023-11-22T02:14:13;3.50;97.66
68257;DHT22;55069;51.568;4.656;2023-11-22T02:16:39;3.57;97.63
68257;DHT22;55069;51.568;4.656;2023-11-22T02:19:06;3.48;97.48
68257;DHT22;55069;51.568;4.656;2023-11-22T02:21:35;3.41;97.48
68257;DHT22;55069;51.568;4.656;2023-11-22T02:24:01;3.41;97.53
68257;DHT22;55069;51.568;4.656;2023-11-22T02:26:27;3.27;97.41
68257;DHT22;55069;51.568;4.656;2023-11-22T02:28:53;3.27;97.51
68257;DHT22;55069;51.568;4.656;2023-11-22T02:31:18;3.23;97.33
68257;DHT22;55069;51.568;4.656;2023-11-22T02:33:44;3.23;97.36
68257;DHT22;55069;51.568;4.656;2023-11-22T02:36:09;3.19;96.95
68257;DHT22;55069;51.568;4.656;2023-11-22T02:38:38;3.09;97.29
68257;DHT22;55069;51.568;4.656;2023-11-22T02:41:03;3.10;97.35
68257;DHT22;55069;51.568;4.656;2023-11-22T02:43:30;3.09;97.37
68257;DHT22;55069;51.568;4.656;2023-11-22T02:45:56;3.07;97.55
68257;DHT22;55069;51.568;4.656;2023-11-22T02:48:21;3.06;97.14
68257;DHT22;55069;51.568;4.656;2023-11-22T02:50:48;3.04;97.18
68257;DHT22;55069;51.568;4.656;2023-11-22T02:53:14;3.07;97.50
68257;DHT22;55069;51.568;4.656;2023-11-22T02:55:40;3.07;97.63
68257;DHT22;55069;51.568;4.656;2023-11-22T02:58:06;3.03;97.36
68257;DHT22;55069;51.568;4.656;2023-11-22T03:00:32;3.03;97.08
68257;DHT22;55069;51.568;4.656;2023-11-22T03:03:00;3.04;97.38
68257;DHT22;55069;51.568;4.656;2023-11-22T03:05:26;3.02;97.21
68257;DHT22;55069;51.568;4.656;2023-11-22T03:07:51;3.02;97.24
68257;DHT22;55069;51.568;4.656;2023-11-22T03:10:17;3.07;97.44
68257;DHT22;55069;51.568;4.656;2023-11-22T03:12:44;3.10;97.47
68257;DHT22;55069;51.568;4.656;2023-11-22T03:15:09;3.09;97.20
68257;DHT22;55069;51.568;4.656;2023-11-22T03:17:36;3.07;97.36
68257;DHT22;55069;51.568;4.656;2023-11-22T03:20:04;3.02;97.25
68257;DHT22;55069;51.568;4.656;2023-11-22T03:22:36;3.00;96.96
68257;DHT22;55069;51.568;4.656;2023-11-22T03:25:02;2.97;97.15
68257;DHT22;55069;51.568;4.656;2023-11-22T03:27:29;2.95;97.01
68257;DHT22;55069;51.568;4.656;2023-11-22T03:29:55;2.93;97.12
68257;DHT22;55069;51.568;4.656;2023-11-22T03:32:21;2.86;97.25
68257;DHT22;55069;51.568;4.656;2023-11-22T03:34:47;2.89;97.49
68257;DHT22;55069;51.568;4.656;2023-11-22T03:37:13;2.95;97.18
68257;DHT22;55069;51.568;4.656;2023-11-22T03:39:38;2.88;97.10
68257;DHT22;55069;51.568;4.656;2023-11-22T03:42:06;2.88;97.37
68257;DHT22;55069;51.568;4.656;2023-11-22T03:44:31;2.89;97.48
68257;DHT22;55069;51.568;4.656;2023-11-22T03:46:57;2.91;97.47
68257;DHT22;55069;51.568;4.656;2023-11-22T03:49:22;2.89;97.33
68257;DHT22;55069;51.568;4.656;2023-11-22T03:51:48;2.89;97.53
68257;DHT22;55069;51.568;4.656;2023-11-22T03:54:13;2.97;97.67
68257;DHT22;55069;51.568;4.656;2023-11-22T03:56:39;3.03;97.57
68257;DHT22;55069;51.568;4.656;2023-11-22T03:59:05;3.00;97.19
68257;DHT22;55069;51.568;4.656;2023-11-22T04:01:30;3.07;97.34
68257;DHT22;55069;51.568;4.656;2023-11-22T04:03:56;3.03;96.97
68257;DHT22;55069;51.568;4.656;2023-11-22T04:06:22;3.12;97.21
68257;DHT22;55069;51.568;4.656;2023-11-22T04:08:48;3.12;97.33
68257;DHT22;55069;51.568;4.656;2023-11-22T04:11:14;3.12;97.19
68257;DHT22;55069;51.568;4.656;2023-11-22T04:13:40;3.09;97.07
68257;DHT22;55069;51.568;4.656;2023-11-22T04:16:08;3.09;97.17
68257;DHT22;55069;51.568;4.656;2023-11-22T04:18:34;3.13;97.32
68257;DHT22;55069;51.568;4.656;2023-11-22T04:21:01;3.20;97.52
68257;DHT22;55069;51.568;4.656;2023-11-22T04:23:30;3.22;97.35
68257;DHT22;55069;51.568;4.656;2023-11-22T04:25:56;3.24;97.31
68257;DHT22;55069;51.568;4.656;2023-11-22T04:28:24;3.24;97.33
68257;DHT22;55069;51.568;4.656;2023-11-22T04:30:49;3.28;97.43
68257;DHT22;55069;51.568;4.656;2023-11-22T04:33:14;3.31;97.42
68257;DHT22;55069;51.568;4.656;2023-11-22T04:35:40;3.31;97.38
68257;DHT22;55069;51.568;4.656;2023-11-22T04:38:07;3.28;97.33
68257;DHT22;55069;51.568;4.656;2023-11-22T04:40:32;3.27;97.20
68257;DHT22;55069;51.568;4.656;2023-11-22T04:42:59;3.31;97.21
68257;DHT22;55069;51.568;4.656;2023-11-22T04:45:24;3.30;97.15
68257;DHT22;55069;51.568;4.656;2023-11-22T04:47:50;3.30;97.19
68257;DHT22;55069;51.568;4.656;2023-11-22T04:50:15;3.27;97.17
68257;DHT22;55069;51.568;4.656;2023-11-22T04:52:41;3.23;97.19
68257;DHT22;55069;51.568;4.656;2023-11-22T04:55:07;3.19;97.25
68257;DHT22;55069;51.568;4.656;2023-11-22T04:57:33;3.24;97.40
68257;DHT22;55069;51.568;4.656;2023-11-22T04:59:58;3.23;97.36
68257;DHT22;55069;51.568;4.656;2023-11-22T05:02:26;3.22;97.39
68257;DHT22;55069;51.568;4.656;2023-11-22T05:04:52;3.24;97.24
68257;DHT22;55069;51.568;4.656;2023-11-22T05:07:18;3.19;97.37
68257;DHT22;55069;51.568;4.656;2023-11-22T05:09:44;3.24;97.51
68257;DHT22;55069;51.568;4.656;2023-11-22T05:12:10;3.22;97.53
68257;DHT22;55069;51.568;4.656;2023-11-22T05:14:40;3.22;97.52
68257;DHT22;55069;51.568;4.656;2023-11-22T05:17:05;3.26;97.56
68257;DHT22;55069;51.568;4.656;2023-11-22T05:19:31;3.27;97.63
68257;DHT22;55069;51.568;4.656;2023-11-22T05:21:57;3.28;97.55
68257;DHT22;55069;51.568;4.656;2023-11-22T05:24:23;3.31;97.57
68257;DHT22;55069;51.568;4.656;2023-11-22T05:26:48;3.31;97.64
68257;DHT22;55069;51.568;4.656;2023-11-22T05:29:14;3.28;97.66
68257;DHT22;55069;51.568;4.656;2023-11-22T05:31:40;3.33;97.66
68257;DHT22;55069;51.568;4.656;2023-11-22T05:34:05;3.34;97.64
68257;DHT22;55069;51.568;4.656;2023-11-22T05:36:31;3.34;97.61
68257;DHT22;55069;51.568;4.656;2023-11-22T05:38:56;3.31;97.58
68257;DHT22;55069;51.568;4.656;2023-11-22T05:41:25;3.37;97.61
68257;DHT22;55069;51.568;4.656;2023-11-22T05:43:54;3.34;97.58
68257;DHT22;55069;51.568;4.656;2023-11-22T05:46:21;3.33;97.73
68257;DHT22;55069;51.568;4.656;2023-11-22T05:48:53;3.33;97.65
68257;DHT22;55069;51.568;4.656;2023-11-22T05:51:19;3.35;97.76
68257;DHT22;55069;51.568;4.656;2023-11-22T05:53:45;3.35;97.83
68257;DHT22;55069;51.568;4.656;2023-11-22T05:56:11;3.38;97.86
68257;DHT22;55069;51.568;4.656;2023-11-22T05:58:37;3.37;97.73
68257;DHT22;55069;51.568;4.656;2023-11-22T06:01:04;3.37;97.68
68257;DHT22;55069;51.568;4.656;2023-11-22T06:03:31;3.31;97.68
68257;DHT22;55069;51.568;4.656;2023-11-22T06:05:57;3.30;97.71
68257;DHT22;55069;51.568;4.656;2023-11-22T06:08:23;3.33;97.81
68257;DHT22;55069;51.568;4.656;2023-11-22T06:10:48;3.34;97.77
68257;DHT22;55069;51.568;4.656;2023-11-22T06:13:14;3.26;97.71
68257;DHT22;55069;51.568;4.656;2023-11-22T06:15:40;3.28;97.77
68257;DHT22;55069;51.568;4.656;2023-11-22T06:18:05;3.28;97.83
68257;DHT22;55069;51.568;4.656;2023-11-22T06:20:31;3.30;97.88
68257;DHT22;55069;51.568;4.656;2023-11-22T06:22:57;3.40;97.93
68257;DHT22;55069;51.568;4.656;2023-11-22T06:25:22;3.44;97.91
68257;DHT22;55069;51.568;4.656;2023-11-22T06:27:48;3.38;97.86
68257;DHT22;55069;51.568;4.656;2023-11-22T06:30:13;3.38;97.84
68257;DHT22;55069;51.568;4.656;2023-11-22T06:32:40;3.35;97.90
68257;DHT22;55069;51.568;4.656;2023-11-22T06:35:07;3.33;97.98
68257;DHT22;55069;51.568;4.656;2023-11-22T06:37:34;3.35;98.07
68257;DHT22;55069;51.568;4.656;2023-11-22T06:39:59;3.35;98.08
68257;DHT22;55069;51.568;4.656;2023-11-22T06:42:25;3.34;98.03
68257;DHT22;55069;51.568;4.656;2023-11-22T06:44:52;3.35;97.93
68257;DHT22;55069;51.568;4.656;2023-11-22T06:47:20;3.31;97.85
68257;DHT22;55069;51.568;4.656;2023-11-22T06:49:46;3.34;97.93
68257;DHT22;55069;51.568;4.656;2023-11-22T06:52:11;3.30;97.85
68257;DHT22;55069;51.568;4.656;2023-11-22T06:54:37;3.28;97.86
68257;DHT22;55069;51.568;4.656;2023-11-22T06:57:03;3.27;97.93
68257;DHT22;55069;51.568;4.656;2023-11-22T06:59:29;3.31;97.93
68257;DHT22;55069;51.568;4.656;2023-11-22T07:01:54;3.34;97.86
68257;DHT22;55069;51.568;4.656;2023-11-22T07:04:21;3.35;97.84
68257;DHT22;55069;51.568;4.656;2023-11-22T07:06:48;3.37;97.82
68257;DHT22;55069;51.568;4.656;2023-11-22T07:09:14;3.37;97.78
68257;DHT22;55069;51.568;4.656;2023-11-22T07:11:40;3.33;97.83
68257;DHT22;55069;51.568;4.656;2023-11-22T07:14:05;3.34;97.86
68257;DHT22;55069;51.568;4.656;2023-11-22T07:16:32;3.37;97.89
68257;DHT22;55069;51.568;4.656;2023-11-22T07:18:59;3.34;97.91
68257;DHT22;55069;51.568;4.656;2023-11-22T07:21:28;3.34;98.00
68257;DHT22;55069;51.568;4.656;2023-11-22T07:23:55;3.43;98.02
68257;DHT22;55069;51.568;4.656;2023-11-22T07:26:20;3.45;98.00
68257;DHT22;55069;51.568;4.656;2023-11-22T07:28:46;3.51;97.98
68257;DHT22;55069;51.568;4.656;2023-11-22T07:31:12;3.52;97.89
68257;DHT22;55069;51.568;4.656;2023-11-22T07:33:37;3.55;97.86
68257;DHT22;55069;51.568;4.656;2023-11-22T07:36:04;3.57;97.83
68257;DHT22;55069;51.568;4.656;2023-11-22T07:38:30;3.55;97.68
68257;DHT22;55069;51.568;4.656;2023-11-22T07:40:57;3.48;97.63
68257;DHT22;55069;51.568;4.656;2023-11-22T07:43:23;3.45;97.65
68257;DHT22;55069;51.568;4.656;2023-11-22T07:45:49;3.51;97.75
68257;DHT22;55069;51.568;4.656;2023-11-22T07:48:16;3.58;97.74
68257;DHT22;55069;51.568;4.656;2023-11-22T07:50:42;3.54;97.75
68257;DHT22;55069;51.568;4.656;2023-11-22T07:53:12;3.52;97.65
68257;DHT22;55069;51.568;4.656;2023-11-22T07:55:38;3.54;97.70
68257;DHT22;55069;51.568;4.656;2023-11-22T07:58:04;3.62;97.73
68257;DHT22;55069;51.568;4.656;2023-11-22T08:00:33;3.67;97.83
68257;DHT22;55069;51.568;4.656;2023-11-22T08:03:02;3.71;97.66
68257;DHT22;55069;51.568;4.656;2023-11-22T08:05:32;3.70;97.64
68257;DHT22;55069;51.568;4.656;2023-11-22T08:08:04;3.71;97.57
68257;DHT22;55069;51.568;4.656;2023-11-22T08:10:36;3.71;97.51
68257;DHT22;55069;51.568;4.656;2023-11-22T08:13:03;3.67;97.51
68257;DHT22;55069;51.568;4.656;2023-11-22T08:15:29;3.68;97.44
68257;DHT22;55069;51.568;4.656;2023-11-22T08:17:57;3.65;97.47
68257;DHT22;55069;51.568;4.656;2023-11-22T08:20:24;3.62;97.46
68257;DHT22;55069;51.568;4.656;2023-11-22T08:22:50;3.60;97.50
68257;DHT22;55069;51.568;4.656;2023-11-22T08:25:16;3.60;97.54
68257;DHT22;55069;51.568;4.656;2023-11-22T08:27:42;3.58;97.58
68257;DHT22;55069;51.568;4.656;2023-11-22T08:30:08;3.64;97.54
68257;DHT22;55069;51.568;4.656;2023-11-22T08:32:39;3.65;97.54
68257;DHT22;55069;51.568;4.656;2023-11-22T08:35:05;3.67;97.59
68257;DHT22;55069;51.568;4.656;2023-11-22T08:37:33;3.75;97.59
68257;DHT22;55069;51.568;4.656;2023-11-22T08:40:01;3.82;97.56
68257;DHT22;55069;51.568;4.656;2023-11-22T08:42:26;3.86;97.56
68257;DHT22;55069;51.568;4.656;2023-11-22T08:44:52;3.89;97.61
68257;DHT22;55069;51.568;4.656;2023-11-22T08:47:17;3.99;97.57
68257;DHT22;55069;51.568;4.656;2023-11-22T08:49:43;3.99;97.54
68257;DHT22;55069;51.568;4.656;2023-11-22T08:52:09;3.96;97.43
68257;DHT22;55069;51.568;4.656;2023-11-22T08:54:34;4.00;97.62
68257;DHT22;55069;51.568;4.656;2023-11-22T08:56:59;4.11;97.75
68257;DHT22;55069;51.568;4.656;2023-11-22T08:59:26;4.26;97.54
68257;DHT22;55069;51.568;4.656;2023-11-22T09:01:52;4.27;97.17
68257;DHT22;55069;51.568;4.656;2023-11-22T09:04:17;4.36;97.17
68257;DHT22;55069;51.568;4.656;2023-11-22T09:06:44;4.36;97.02
68257;DHT22;55069;51.568;4.656;2023-11-22T09:09:09;4.50;97.27
68257;DHT22;55069;51.568;4.656;2023-11-22T09:11:41;4.57;96.94
68257;DHT22;55069;51.568;4.656;2023-11-22T09:14:06;4.65;97.08
68257;DHT22;55069;51.568;4.656;2023-11-22T09:16:36;4.75;96.96
68257;DHT22;55069;51.568;4.656;2023-11-22T09:19:02;4.92;96.88
68257;DHT22;55069;51.568;4.656;2023-11-22T09:21:28;5.04;96.90
68257;DHT22;55069;51.568;4.656;2023-11-22T09:23:54;5.15;96.78
68257;DHT22;55069;51.568;4.656;2023-11-22T09:26:20;5.08;96.18
68257;DHT22;55069;51.568;4.656;2023-11-22T09:28:45;5.25;96.39
68257;DHT22;55069;51.568;4.656;2023-11-22T09:31:11;5.32;96.31
68257;DHT22;55069;51.568;4.656;2023-11-22T09:33:43;5.42;96.38
68257;DHT22;55069;51.568;4.656;2023-11-22T09:36:08;5.50;96.13
68257;DHT22;55069;51.568;4.656;2023-11-22T09:38:34;5.55;96.17
68257;DHT22;55069;51.568;4.656;2023-11-22T09:41:00;5.60;95.95
68257;DHT22;55069;51.568;4.656;2023-11-22T09:43:27;5.58;95.83
68257;DHT22;55069;51.568;4.656;2023-11-22T09:45:54;5.58;95.72
68257;DHT22;55069;51.568;4.656;2023-11-22T09:48:23;5.65;95.67
68257;DHT22;55069;51.568;4.656;2023-11-22T09:56:20;5.74;94.98
68257;DHT22;55069;51.568;4.656;2023-11-22T09:58:46;5.74;94.87
68257;DHT22;55069;51.568;4.656;2023-11-22T10:01:15;5.78;94.99
68257;DHT22;55069;51.568;4.656;2023-11-22T10:03:41;5.71;94.45
68257;DHT22;55069;51.568;4.656;2023-11-22T10:06:07;5.74;95.02
68257;DHT22;55069;51.568;4.656;2023-11-22T10:08:33;5.73;94.59
68257;DHT22;55069;51.568;4.656;2023-11-22T10:11:00;5.77;94.65
68257;DHT22;55069;51.568;4.656;2023-11-22T10:13:26;5.87;94.88
68257;DHT22;55069;51.568;4.656;2023-11-22T10:15:52;5.75;94.23
68257;DHT22;55069;51.568;4.656;2023-11-22T10:18:19;5.68;94.12
68257;DHT22;55069;51.568;4.656;2023-11-22T10:20:47;5.75;94.43
68257;DHT22;55069;51.568;4.656;2023-11-22T10:23:15;5.77;94.39
68257;DHT22;55069;51.568;4.656;2023-11-22T10:25:48;5.68;94.49
68257;DHT22;55069;51.568;4.656;2023-11-22T10:28:18;5.77;94.69
68257;DHT22;55069;51.568;4.656;2023-11-22T10:30:48;5.79;94.84
68257;DHT22;55069;51.568;4.656;2023-11-22T10:33:15;5.95;94.89
68257;DHT22;55069;51.568;4.656;2023-11-22T10:35:45;5.97;94.45
68257;DHT22;55069;51.568;4.656;2023-11-22T10:38:16;5.85;94.07
68257;DHT22;55069;51.568;4.656;2023-11-22T10:40:42;5.90;93.83
68257;DHT22;55069;51.568;4.656;2023-11-22T10:43:16;6.09;94.34
68257;DHT22;55069;51.568;4.656;2023-11-22T10:45:43;5.94;93.62
68257;DHT22;55069;51.568;4.656;2023-11-22T10:48:14;5.82;94.29
68257;DHT22;55069;51.568;4.656;2023-11-22T10:50:44;5.81;94.53
68257;DHT22;55069;51.568;4.656;2023-11-22T10:53:15;5.88;94.38
68257;DHT22;55069;51.568;4.656;2023-11-22T10:55:44;5.70;94.19
68257;DHT22;55069;51.568;4.656;2023-11-22T10:58:10;5.64;94.45
68257;DHT22;55069;51.568;4.656;2023-11-22T11:00:40;5.79;94.86
68257;DHT22;55069;51.568;4.656;2023-11-22T11:03:20;5.71;94.54
68257;DHT22;55069;51.568;4.656;2023-11-22T11:05:58;5.63;94.86
68257;DHT22;55069;51.568;4.656;2023-11-22T11:08:28;5.65;94.97
68257;DHT22;55069;51.568;4.656;2023-11-22T11:10:54;5.67;94.90
68257;DHT22;55069;51.568;4.656;2023-11-22T11:13:23;5.73;95.01
68257;DHT22;55069;51.568;4.656;2023-11-22T11:15:49;5.81;94.87
68257;DHT22;55069;51.568;4.656;2023-11-22T11:18:16;5.78;94.76
68257;DHT22;55069;51.568;4.656;2023-11-22T11:20:52;5.82;94.40
68257;DHT22;55069;51.568;4.656;2023-11-22T11:23:23;5.74;94.19
68257;DHT22;55069;51.568;4.656;2023-11-22T11:25:56;5.65;94.41
68257;DHT22;55069;51.568;4.656;2023-11-22T11:28:26;5.75;94.47
68257;DHT22;55069;51.568;4.656;2023-11-22T11:30:53;5.84;94.63
68257;DHT22;55069;51.568;4.656;2023-11-22T11:33:33;5.79;94.44
68257;DHT22;55069;51.568;4.656;2023-11-22T11:36:02;6.02;94.37
68257;DHT22;55069;51.568;4.656;2023-11-22T11:38:35;6.13;93.76
68257;DHT22;55069;51.568;4.656;2023-11-22T11:41:11;6.19;93.37
68257;DHT22;55069;51.568;4.656;2023-11-22T11:43:43;6.25;93.33
68257;DHT22;55069;51.568;4.656;2023-11-22T11:46:09;6.03;92.96
68257;DHT22;55069;51.568;4.656;2023-11-22T11:48:35;5.95;93.11
68257;DHT22;55069;51.568;4.656;2023-11-22T11:51:01;5.92;93.30
68257;DHT22;55069;51.568;4.656;2023-11-22T11:53:27;5.87;93.26
68257;DHT22;55069;51.568;4.656;2023-11-22T11:55:53;5.90;93.62
68257;DHT22;55069;51.568;4.656;2023-11-22T11:58:19;5.85;93.52
68257;DHT22;55069;51.568;4.656;2023-11-22T12:00:45;5.85;93.88
68257;DHT22;55069;51.568;4.656;2023-11-22T12:03:10;5.88;94.05
68257;DHT22;55069;51.568;4.656;2023-11-22T12:05:37;5.78;93.51
68257;DHT22;55069;51.568;4.656;2023-11-22T12:08:03;5.73;93.72
68257;DHT22;55069;51.568;4.656;2023-11-22T12:10:28;5.81;93.77
68257;DHT22;55069;51.568;4.656;2023-11-22T12:12:55;5.84;93.81
68257;DHT22;55069;51.568;4.656;2023-11-22T12:15:20;5.84;93.29
68257;DHT22;55069;51.568;4.656;2023-11-22T12:17:48;5.73;93.50
68257;DHT22;55069;51.568;4.656;2023-11-22T12:20:16;5.82;94.10
68257;DHT22;55069;51.568;4.656;2023-11-22T12:22:49;6.09;94.11
68257;DHT22;55069;51.568;4.656;2023-11-22T12:25:14;6.01;92.97
68257;DHT22;55069;51.568;4.656;2023-11-22T12:27:44;5.92;93.04
68257;DHT22;55069;51.568;4.656;2023-11-22T12:32:53;6.03;93.55
68257;DHT22;55069;51.568;4.656;2023-11-22T12:35:19;6.05;93.14
68257;DHT22;55069;51.568;4.656;2023-11-22T12:37:45;6.05;93.03
68257;DHT22;55069;51.568;4.656;2023-11-22T12:40:12;6.08;92.79
68257;DHT22;55069;51.568;4.656;2023-11-22T12:42:50;6.20;92.54
68257;DHT22;55069;51.568;4.656;2023-11-22T12:45:19;6.23;92.66
68257;DHT22;55069;51.568;4.656;2023-11-22T12:47:45;6.13;92.19
68257;DHT22;55069;51.568;4.656;2023-11-22T12:52:58;6.23;92.10
68257;DHT22;55069;51.568;4.656;2023-11-22T12:55:24;6.22;91.72
68257;DHT22;55069;51.568;4.656;2023-11-22T12:57:57;6.18;92.01
68257;DHT22;55069;51.568;4.656;2023-11-22T13:00:24;6.23;92.20
68257;DHT22;55069;51.568;4.656;2023-11-22T13:02:49;6.23;91.86
68257;DHT22;55069;51.568;4.656;2023-11-22T13:05:15;6.39;92.15
68257;DHT22;55069;51.568;4.656;2023-11-22T13:07:41;6.33;91.63
68257;DHT22;55069;51.568;4.656;2023-11-22T13:10:08;6.32;91.57
68257;DHT22;55069;51.568;4.656;2023-11-22T13:12:35;6.34;91.51
68257;DHT22;55069;51.568;4.656;2023-11-22T13:15:00;6.39;91.80
68257;DHT22;55069;51.568;4.656;2023-11-22T13:17:26;6.37;91.65
68257;DHT22;55069;51.568;4.656;2023-11-22T13:19:51;6.36;91.79
68257;DHT22;55069;51.568;4.656;2023-11-22T13:22:17;6.43;92.28
68257;DHT22;55069;51.568;4.656;2023-11-22T13:24:44;6.40;91.85
68257;DHT22;55069;51.568;4.656;2023-11-22T13:27:09;6.30;91.66
68257;DHT22;55069;51.568;4.656;2023-11-22T13:29:35;6.20;92.09
68257;DHT22;55069;51.568;4.656;2023-11-22T13:32:00;6.20;92.29
68257;DHT22;55069;51.568;4.656;2023-11-22T13:34:26;6.22;92.27
68257;DHT22;55069;51.568;4.656;2023-11-22T13:36:51;6.20;92.18
68257;DHT22;55069;51.568;4.656;2023-11-22T13:39:17;6.26;92.44
68257;DHT22;55069;51.568;4.656;2023-11-22T13:41:42;6.28;92.16
68257;DHT22;55069;51.568;4.656;2023-11-22T13:44:08;6.32;92.18
68257;DHT22;55069;51.568;4.656;2023-11-22T13:46:33;6.30;92.12
68257;DHT22;55069;51.568;4.656;2023-11-22T13:48:59;6.25;92.29
68257;DHT22;55069;51.568;4.656;2023-11-22T13:51:24;6.23;92.23
68257;DHT22;55069;51.568;4.656;2023-11-22T13:53:50;6.19;92.26
68257;DHT22;55069;51.568;4.656;2023-11-22T13:56:18;6.23;92.26
68257;DHT22;55069;51.568;4.656;2023-11-22T13:58:44;6.15;91.74
68257;DHT22;55069;51.568;4.656;2023-11-22T14:01:10;6.02;92.01
68257;DHT22;55069;51.568;4.656;2023-11-22T14:03:41;5.98;92.27
68257;DHT22;55069;51.568;4.656;2023-11-22T14:06:07;5.94;92.61
68257;DHT22;55069;51.568;4.656;2023-11-22T14:08:35;5.98;92.74
68257;DHT22;55069;51.568;4.656;2023-11-22T14:11:00;5.99;92.96
68257;DHT22;55069;51.568;4.656;2023-11-22T14:13:25;5.97;92.50
68257;DHT22;55069;51.568;4.656;2023-11-22T14:15:51;5.91;92.91
68257;DHT22;55069;51.568;4.656;2023-11-22T14:18:17;5.88;92.84
68257;DHT22;55069;51.568;4.656;2023-11-22T14:20:42;5.91;92.96
68257;DHT22;55069;51.568;4.656;2023-11-22T14:23:09;5.87;93.01
68257;DHT22;55069;51.568;4.656;2023-11-22T14:25:34;5.79;92.90
68257;DHT22;55069;51.568;4.656;2023-11-22T14:28:00;5.78;92.80
68257;DHT22;55069;51.568;4.656;2023-11-22T14:30:25;5.74;93.04
68257;DHT22;55069;51.568;4.656;2023-11-22T14:32:54;5.70;93.23
68257;DHT22;55069;51.568;4.656;2023-11-22T14:35:19;5.68;93.46
68257;DHT22;55069;51.568;4.656;2023-11-22T14:37:45;5.65;93.80
68257;DHT22;55069;51.568;4.656;2023-11-22T14:40:11;5.58;93.54
68257;DHT22;55069;51.568;4.656;2023-11-22T14:42:45;5.60;93.52
68257;DHT22;55069;51.568;4.656;2023-11-22T14:45:12;5.65;93.75
68257;DHT22;55069;51.568;4.656;2023-11-22T14:47:38;5.63;93.82
68257;DHT22;55069;51.568;4.656;2023-11-22T14:50:06;5.68;93.89
68257;DHT22;55069;51.568;4.656;2023-11-22T14:52:32;5.74;94.12
68257;DHT22;55069;51.568;4.656;2023-11-22T14:54:58;5.73;93.89
68257;DHT22;55069;51.568;4.656;2023-11-22T14:57:26;5.75;93.98
68257;DHT22;55069;51.568;4.656;2023-11-22T14:59:51;5.73;93.90
68257;DHT22;55069;51.568;4.656;2023-11-22T15:02:17;5.75;93.97
68257;DHT22;55069;51.568;4.656;2023-11-22T15:04:43;5.70;94.21
68257;DHT22;55069;51.568;4.656;2023-11-22T15:07:09;5.68;94.28
68257;DHT22;55069;51.568;4.656;2023-11-22T15:09:37;5.70;94.62
68257;DHT22;55069;51.568;4.656;2023-11-22T15:12:02;5.67;94.37
68257;DHT22;55069;51.568;4.656;2023-11-22T15:14:33;5.64;94.67
68257;DHT22;55069;51.568;4.656;2023-11-22T15:16:59;5.61;94.88
68257;DHT22;55069;51.568;4.656;2023-11-22T15:19:29;5.61;94.99
68257;DHT22;55069;51.568;4.656;2023-11-22T15:21:55;5.61;95.18
68257;DHT22;55069;51.568;4.656;2023-11-22T15:24:21;5.63;95.15
68257;DHT22;55069;51.568;4.656;2023-11-22T15:26:46;5.64;95.05
68257;DHT22;55069;51.568;4.656;2023-11-22T15:29:12;5.70;95.01
68257;DHT22;55069;51.568;4.656;2023-11-22T15:31:41;5.63;94.82
68257;DHT22;55069;51.568;4.656;2023-11-22T15:34:06;5.65;94.98
68257;DHT22;55069;51.568;4.656;2023-11-22T15:36:32;5.58;95.16
68257;DHT22;55069;51.568;4.656;2023-11-22T15:39:00;5.60;95.06
68257;DHT22;55069;51.568;4.656;2023-11-22T15:41:26;5.63;95.32
68257;DHT22;55069;51.568;4.656;2023-11-22T15:43:52;5.64;95.10
68257;DHT22;55069;51.568;4.656;2023-11-22T15:46:17;5.63;95.14
68257;DHT22;55069;51.568;4.656;2023-11-22T15:48:44;5.61;95.32
68257;DHT22;55069;51.568;4.656;2023-11-22T15:51:10;5.61;95.33